sensor_id;sensor_type;location;lat;lon;timestamp;temperature;humidity
74494;SHT31;62978;51.094;-115.362;2022-10-16T00:01:39;16.17;29.92
74494;SHT31;62978;51.094;-115.362;2022-10-16T00:04:07;15.80;30.52
74494;SHT31;62978;51.094;-115.362;2022-10-16T00:06:35;15.47;31.11
74494;SHT31;62978;51.094;-115.362;2022-10-16T00:09:03;15.15;31.78
74494;SHT31;62978;51.094;-115.362;2022-10-16T00:11:33;14.85;32.59
74494;SHT31;62978;51.094;-115.362;2022-10-16T00:14:03;14.57;33.31
74494;SHT31;62978;51.094;-115.362;2022-10-16T00:16:36;14.27;33.98
74494;SHT31;62978;51.094;-115.362;2022-10-16T00:19:04;13.96;34.90
74494;SHT31;62978;51.094;-115.362;2022-10-16T00:21:32;13.67;35.43
74494;SHT31;62978;51.094;-115.362;2022-10-16T00:24:01;13.41;35.94
74494;SHT31;62978;51.094;-115.362;2022-10-16T00:26:34;13.16;36.59
74494;SHT31;62978;51.094;-115.362;2022-10-16T00:29:03;12.95;37.15
74494;SHT31;62978;51.094;-115.362;2022-10-16T00:31:32;12.68;37.82
74494;SHT31;62978;51.094;-115.362;2022-10-16T00:34:00;12.44;38.24
74494;SHT31;62978;51.094;-115.362;2022-10-16T00:36:28;12.20;38.72
74494;SHT31;62978;51.094;-115.362;2022-10-16T00:38:56;11.95;39.29
74494;SHT31;62978;51.094;-115.362;2022-10-16T00:41:26;11.74;39.86
74494;SHT31;62978;51.094;-115.362;2022-10-16T00:43:55;11.55;40.71
74494;SHT31;62978;51.094;-115.362;2022-10-16T00:49:08;11.19;41.92
74494;SHT31;62978;51.094;-115.362;2022-10-16T00:51:51;10.99;42.56
74494;SHT31;62978;51.094;-115.362;2022-10-16T00:54:25;10.79;43.10
74494;SHT31;62978;51.094;-115.362;2022-10-16T00:56:56;10.62;43.47
74494;SHT31;62978;51.094;-115.362;2022-10-16T00:59:30;10.47;43.86
74494;SHT31;62978;51.094;-115.362;2022-10-16T01:02:10;10.30;44.32
74494;SHT31;62978;51.094;-115.362;2022-10-16T01:04:50;10.14;44.85
74494;SHT31;62978;51.094;-115.362;2022-10-16T01:13:06;9.69;46.39
74494;SHT31;62978;51.094;-115.362;2022-10-16T01:19:01;9.35;47.57
74494;SHT31;62978;51.094;-115.362;2022-10-16T01:21:46;9.20;47.92
74494;SHT31;62978;51.094;-115.362;2022-10-16T01:27:08;8.92;48.66
74494;SHT31;62978;51.094;-115.362;2022-10-16T01:35:04;8.55;49.65
74494;SHT31;62978;51.094;-115.362;2022-10-16T01:37:58;8.43;49.99
74494;SHT31;62978;51.094;-115.362;2022-10-16T01:40:41;8.31;50.31
74494;SHT31;62978;51.094;-115.362;2022-10-16T01:43:25;8.18;50.73
74494;SHT31;62978;51.094;-115.362;2022-10-16T01:46:00;8.07;51.04
74494;SHT31;62978;51.094;-115.362;2022-10-16T01:48:29;7.95;51.30
74494;SHT31;62978;51.094;-115.362;2022-10-16T01:51:03;7.85;51.55
74494;SHT31;62978;51.094;-115.362;2022-10-16T01:53:40;7.73;51.91
74494;SHT31;62978;51.094;-115.362;2022-10-16T01:56:14;7.64;52.03
74494;SHT31;62978;51.094;-115.362;2022-10-16T01:58:47;7.53;52.36
74494;SHT31;62978;51.094;-115.362;2022-10-16T02:01:26;7.41;52.69
74494;SHT31;62978;51.094;-115.362;2022-10-16T02:03:59;7.30;52.95
74494;SHT31;62978;51.094;-115.362;2022-10-16T02:06:52;7.18;53.32
74494;SHT31;62978;51.094;-115.362;2022-10-16T02:09:20;7.09;53.54
74494;SHT31;62978;51.094;-115.362;2022-10-16T02:11:48;7.00;53.80
74494;SHT31;62978;51.094;-115.362;2022-10-16T02:14:21;6.89;54.04
74494;SHT31;62978;51.094;-115.362;2022-10-16T02:16:50;6.81;54.21
74494;SHT31;62978;51.094;-115.362;2022-10-16T02:19:18;6.72;54.36
74494;SHT31;62978;51.094;-115.362;2022-10-16T02:21:58;6.65;54.57
74494;SHT31;62978;51.094;-115.362;2022-10-16T02:28:06;6.45;55.18
74494;SHT31;62978;51.094;-115.362;2022-10-16T02:30:33;6.34;55.78
74494;SHT31;62978;51.094;-115.362;2022-10-16T02:33:16;6.22;56.09
74494;SHT31;62978;51.094;-115.362;2022-10-16T02:35:47;6.15;56.30
74494;SHT31;62978;51.094;-115.362;2022-10-16T02:38:18;6.07;56.44
74494;SHT31;62978;51.094;-115.362;2022-10-16T02:40:52;6.00;56.54
74494;SHT31;62978;51.094;-115.362;2022-10-16T02:43:21;5.92;56.73
74494;SHT31;62978;51.094;-115.362;2022-10-16T02:45:50;5.84;56.93
74494;SHT31;62978;51.094;-115.362;2022-10-16T02:48:18;5.77;57.21
74494;SHT31;62978;51.094;-115.362;2022-10-16T02:50:46;5.69;57.31
74494;SHT31;62978;51.094;-115.362;2022-10-16T02:53:14;5.61;57.71
74494;SHT31;62978;51.094;-115.362;2022-10-16T02:55:41;5.54;58.23
74494;SHT31;62978;51.094;-115.362;2022-10-16T02:58:09;5.45;58.27
74494;SHT31;62978;51.094;-115.362;2022-10-16T03:00:37;5.38;58.15
74494;SHT31;62978;51.094;-115.362;2022-10-16T03:03:04;5.30;58.37
74494;SHT31;62978;51.094;-115.362;2022-10-16T03:05:32;5.22;58.45
74494;SHT31;62978;51.094;-115.362;2022-10-16T03:08:00;5.16;58.71
74494;SHT31;62978;51.094;-115.362;2022-10-16T03:10:27;5.08;58.84
74494;SHT31;62978;51.094;-115.362;2022-10-16T03:12:55;5.03;58.93
74494;SHT31;62978;51.094;-115.362;2022-10-16T03:15:25;4.96;59.15
74494;SHT31;62978;51.094;-115.362;2022-10-16T03:17:53;4.89;59.41
74494;SHT31;62978;51.094;-115.362;2022-10-16T03:20:24;4.84;59.59
74494;SHT31;62978;51.094;-115.362;2022-10-16T03:22:52;4.75;59.97
74494;SHT31;62978;51.094;-115.362;2022-10-16T03:25:20;4.69;60.13
74494;SHT31;62978;51.094;-115.362;2022-10-16T03:27:47;4.63;60.19
74494;SHT31;62978;51.094;-115.362;2022-10-16T03:30:14;4.58;60.43
74494;SHT31;62978;51.094;-115.362;2022-10-16T03:32:44;4.52;60.65
74494;SHT31;62978;51.094;-115.362;2022-10-16T03:35:13;4.47;60.81
74494;SHT31;62978;51.094;-115.362;2022-10-16T03:37:40;4.39;60.92
74494;SHT31;62978;51.094;-115.362;2022-10-16T03:40:08;4.34;61.09
74494;SHT31;62978;51.094;-115.362;2022-10-16T03:42:36;4.27;61.28
74494;SHT31;62978;51.094;-115.362;2022-10-16T03:45:04;4.21;61.46
74494;SHT31;62978;51.094;-115.362;2022-10-16T03:47:32;4.16;61.66
74494;SHT31;62978;51.094;-115.362;2022-10-16T03:50:00;4.10;61.70
74494;SHT31;62978;51.094;-115.362;2022-10-16T03:52:28;4.06;61.84
74494;SHT31;62978;51.094;-115.362;2022-10-16T03:54:57;4.02;62.26
74494;SHT31;62978;51.094;-115.362;2022-10-16T03:57:33;3.96;62.33
74494;SHT31;62978;51.094;-115.362;2022-10-16T04:00:01;3.91;62.46
74494;SHT31;62978;51.094;-115.362;2022-10-16T04:02:29;3.88;62.56
74494;SHT31;62978;51.094;-115.362;2022-10-16T04:04:57;3.84;62.66
74494;SHT31;62978;51.094;-115.362;2022-10-16T04:07:25;3.75;62.93
74494;SHT31;62978;51.094;-115.362;2022-10-16T04:09:56;3.69;63.19
74494;SHT31;62978;51.094;-115.362;2022-10-16T04:12:26;3.63;63.32
74494;SHT31;62978;51.094;-115.362;2022-10-16T04:14:54;3.59;63.43
74494;SHT31;62978;51.094;-115.362;2022-10-16T04:17:22;3.53;63.70
74494;SHT31;62978;51.094;-115.362;2022-10-16T04:19:49;3.49;63.80
74494;SHT31;62978;51.094;-115.362;2022-10-16T04:22:18;3.49;63.79
74494;SHT31;62978;51.094;-115.362;2022-10-16T04:24:45;3.52;63.81
74494;SHT31;62978;51.094;-115.362;2022-10-16T04:27:13;3.54;63.67
74494;SHT31;62978;51.094;-115.362;2022-10-16T04:29:40;3.58;63.59
74494;SHT31;62978;51.094;-115.362;2022-10-16T04:32:08;3.61;63.53
74494;SHT31;62978;51.094;-115.362;2022-10-16T04:34:36;3.63;63.46
74494;SHT31;62978;51.094;-115.362;2022-10-16T04:37:06;3.63;63.48
74494;SHT31;62978;51.094;-115.362;2022-10-16T04:39:34;3.61;63.50
74494;SHT31;62978;51.094;-115.362;2022-10-16T04:42:02;3.57;63.47
74494;SHT31;62978;51.094;-115.362;2022-10-16T04:44:30;3.54;63.63
74494;SHT31;62978;51.094;-115.362;2022-10-16T04:46:57;3.48;63.91
74494;SHT31;62978;51.094;-115.362;2022-10-16T04:49:27;3.41;63.92
74494;SHT31;62978;51.094;-115.362;2022-10-16T04:51:55;3.34;64.01
74494;SHT31;62978;51.094;-115.362;2022-10-16T04:54:22;3.28;64.14
74494;SHT31;62978;51.094;-115.362;2022-10-16T04:56:49;3.23;64.11
74494;SHT31;62978;51.094;-115.362;2022-10-16T04:59:18;3.17;64.23
74494;SHT31;62978;51.094;-115.362;2022-10-16T05:01:46;3.11;64.41
74494;SHT31;62978;51.094;-115.362;2022-10-16T05:04:14;3.03;64.67
74494;SHT31;62978;51.094;-115.362;2022-10-16T05:06:42;2.96;64.86
74494;SHT31;62978;51.094;-115.362;2022-10-16T05:09:09;2.89;65.03
74494;SHT31;62978;51.094;-115.362;2022-10-16T05:11:37;2.84;65.06
74494;SHT31;62978;51.094;-115.362;2022-10-16T05:14:04;2.80;65.14
74494;SHT31;62978;51.094;-115.362;2022-10-16T05:16:32;2.75;65.25
74494;SHT31;62978;51.094;-115.362;2022-10-16T05:18:59;2.70;65.48
74494;SHT31;62978;51.094;-115.362;2022-10-16T05:21:26;2.61;65.64
74494;SHT31;62978;51.094;-115.362;2022-10-16T05:23:54;2.56;65.90
74494;SHT31;62978;51.094;-115.362;2022-10-16T05:26:21;2.50;66.00
74494;SHT31;62978;51.094;-115.362;2022-10-16T05:28:49;2.45;66.05
74494;SHT31;62978;51.094;-115.362;2022-10-16T05:31:16;2.41;66.13
74494;SHT31;62978;51.094;-115.362;2022-10-16T05:33:44;2.36;66.21
74494;SHT31;62978;51.094;-115.362;2022-10-16T05:36:11;2.30;66.48
74494;SHT31;62978;51.094;-115.362;2022-10-16T05:38:38;2.23;66.78
74494;SHT31;62978;51.094;-115.362;2022-10-16T05:41:06;2.17;67.07
74494;SHT31;62978;51.094;-115.362;2022-10-16T05:43:33;2.15;67.30
74494;SHT31;62978;51.094;-115.362;2022-10-16T05:46:02;2.18;67.28
74494;SHT31;62978;51.094;-115.362;2022-10-16T05:48:32;2.19;67.35
74494;SHT31;62978;51.094;-115.362;2022-10-16T05:51:03;2.21;67.29
74494;SHT31;62978;51.094;-115.362;2022-10-16T05:53:34;2.23;67.20
74494;SHT31;62978;51.094;-115.362;2022-10-16T05:56:04;2.25;67.22
74494;SHT31;62978;51.094;-115.362;2022-10-16T05:58:35;2.27;67.17
74494;SHT31;62978;51.094;-115.362;2022-10-16T06:01:07;2.27;67.21
74494;SHT31;62978;51.094;-115.362;2022-10-16T06:03:40;2.25;67.39
74494;SHT31;62978;51.094;-115.362;2022-10-16T06:06:09;2.25;67.52
74494;SHT31;62978;51.094;-115.362;2022-10-16T06:08:39;2.24;67.68
74494;SHT31;62978;51.094;-115.362;2022-10-16T06:11:09;2.19;67.75
74494;SHT31;62978;51.094;-115.362;2022-10-16T06:13:43;2.13;67.93
74494;SHT31;62978;51.094;-115.362;2022-10-16T06:16:11;2.07;68.28
74494;SHT31;62978;51.094;-115.362;2022-10-16T06:18:39;2.00;68.66
74494;SHT31;62978;51.094;-115.362;2022-10-16T06:21:10;1.95;68.99
74494;SHT31;62978;51.094;-115.362;2022-10-16T06:23:42;1.90;69.07
74494;SHT31;62978;51.094;-115.362;2022-10-16T06:26:14;1.87;69.22
74494;SHT31;62978;51.094;-115.362;2022-10-16T06:28:44;1.82;69.57
74494;SHT31;62978;51.094;-115.362;2022-10-16T06:31:12;1.78;69.53
74494;SHT31;62978;51.094;-115.362;2022-10-16T06:33:40;1.75;69.55
74494;SHT31;62978;51.094;-115.362;2022-10-16T06:36:12;1.72;69.68
74494;SHT31;62978;51.094;-115.362;2022-10-16T06:38:42;1.71;69.82
74494;SHT31;62978;51.094;-115.362;2022-10-16T06:41:14;1.73;69.82
74494;SHT31;62978;51.094;-115.362;2022-10-16T06:43:45;1.76;69.95
74494;SHT31;62978;51.094;-115.362;2022-10-16T06:46:15;1.78;69.94
74494;SHT31;62978;51.094;-115.362;2022-10-16T06:48:47;1.83;70.01
74494;SHT31;62978;51.094;-115.362;2022-10-16T06:51:15;1.89;70.01
74494;SHT31;62978;51.094;-115.362;2022-10-16T06:53:54;1.89;70.00
74494;SHT31;62978;51.094;-115.362;2022-10-16T06:56:26;1.89;70.01
74494;SHT31;62978;51.094;-115.362;2022-10-16T06:58:55;1.89;69.94
74494;SHT31;62978;51.094;-115.362;2022-10-16T07:01:23;1.85;70.00
74494;SHT31;62978;51.094;-115.362;2022-10-16T07:03:51;1.79;70.11
74494;SHT31;62978;51.094;-115.362;2022-10-16T07:06:20;1.75;70.28
74494;SHT31;62978;51.094;-115.362;2022-10-16T07:08:50;1.70;70.43
74494;SHT31;62978;51.094;-115.362;2022-10-16T07:11:18;1.65;70.55
74494;SHT31;62978;51.094;-115.362;2022-10-16T07:13:49;1.61;70.73
74494;SHT31;62978;51.094;-115.362;2022-10-16T07:16:18;1.56;70.81
74494;SHT31;62978;51.094;-115.362;2022-10-16T07:18:55;1.53;70.79
74494;SHT31;62978;51.094;-115.362;2022-10-16T07:21:25;1.47;70.76
74494;SHT31;62978;51.094;-115.362;2022-10-16T07:23:55;1.43;70.71
74494;SHT31;62978;51.094;-115.362;2022-10-16T07:26:27;1.39;70.84
74494;SHT31;62978;51.094;-115.362;2022-10-16T07:28:56;1.34;70.98
74494;SHT31;62978;51.094;-115.362;2022-10-16T07:31:23;1.29;71.17
74494;SHT31;62978;51.094;-115.362;2022-10-16T07:33:50;1.27;71.42
74494;SHT31;62978;51.094;-115.362;2022-10-16T07:36:18;1.25;71.79
74494;SHT31;62978;51.094;-115.362;2022-10-16T07:38:47;1.25;71.89
74494;SHT31;62978;51.094;-115.362;2022-10-16T07:41:15;1.27;71.70
74494;SHT31;62978;51.094;-115.362;2022-10-16T07:43:48;1.31;71.67
74494;SHT31;62978;51.094;-115.362;2022-10-16T07:46:18;1.34;71.73
74494;SHT31;62978;51.094;-115.362;2022-10-16T07:48:47;1.32;71.71
74494;SHT31;62978;51.094;-115.362;2022-10-16T07:51:16;1.32;71.70
74494;SHT31;62978;51.094;-115.362;2022-10-16T07:53:46;1.30;71.76
74494;SHT31;62978;51.094;-115.362;2022-10-16T07:56:15;1.25;71.77
74494;SHT31;62978;51.094;-115.362;2022-10-16T07:58:43;1.20;71.78
74494;SHT31;62978;51.094;-115.362;2022-10-16T08:01:12;1.17;71.95
74494;SHT31;62978;51.094;-115.362;2022-10-16T08:03:42;1.12;72.21
74494;SHT31;62978;51.094;-115.362;2022-10-16T08:06:11;1.07;72.34
74494;SHT31;62978;51.094;-115.362;2022-10-16T08:08:38;1.02;72.47
74494;SHT31;62978;51.094;-115.362;2022-10-16T08:11:06;0.97;72.50
74494;SHT31;62978;51.094;-115.362;2022-10-16T08:13:33;0.93;72.57
74494;SHT31;62978;51.094;-115.362;2022-10-16T08:16:00;0.87;72.62
74494;SHT31;62978;51.094;-115.362;2022-10-16T08:18:33;0.82;72.70
74494;SHT31;62978;51.094;-115.362;2022-10-16T08:21:02;0.80;72.84
74494;SHT31;62978;51.094;-115.362;2022-10-16T08:23:31;0.79;72.94
74494;SHT31;62978;51.094;-115.362;2022-10-16T08:26:03;0.80;73.00
74494;SHT31;62978;51.094;-115.362;2022-10-16T08:28:33;0.83;73.03
74494;SHT31;62978;51.094;-115.362;2022-10-16T08:31:12;0.89;73.03
74494;SHT31;62978;51.094;-115.362;2022-10-16T08:33:42;0.93;72.90
74494;SHT31;62978;51.094;-115.362;2022-10-16T08:36:12;0.93;72.84
74494;SHT31;62978;51.094;-115.362;2022-10-16T08:38:41;0.90;72.89
74494;SHT31;62978;51.094;-115.362;2022-10-16T08:50:37;0.71;73.14
74494;SHT31;62978;51.094;-115.362;2022-10-16T08:53:06;0.67;73.32
74494;SHT31;62978;51.094;-115.362;2022-10-16T08:55:58;0.60;73.49
74494;SHT31;62978;51.094;-115.362;2022-10-16T08:58:27;0.55;73.64
74494;SHT31;62978;51.094;-115.362;2022-10-16T09:00:57;0.49;73.61
74494;SHT31;62978;51.094;-115.362;2022-10-16T09:12:58;0.26;74.59
74494;SHT31;62978;51.094;-115.362;2022-10-16T09:16:12;0.23;74.53
74494;SHT31;62978;51.094;-115.362;2022-10-16T09:22:18;0.29;74.54
74494;SHT31;62978;51.094;-115.362;2022-10-16T09:24:59;0.33;74.55
74494;SHT31;62978;51.094;-115.362;2022-10-16T09:27:57;0.38;74.49
74494;SHT31;62978;51.094;-115.362;2022-10-16T09:30:26;0.41;74.47
74494;SHT31;62978;51.094;-115.362;2022-10-16T09:32:56;0.43;74.42
74494;SHT31;62978;51.094;-115.362;2022-10-16T09:35:58;0.43;74.47
74494;SHT31;62978;51.094;-115.362;2022-10-16T09:38:42;0.41;74.54
74494;SHT31;62978;51.094;-115.362;2022-10-16T09:41:21;0.39;74.74
74494;SHT31;62978;51.094;-115.362;2022-10-16T09:49:22;0.31;74.81
74494;SHT31;62978;51.094;-115.362;2022-10-16T09:52:13;0.28;74.87
74494;SHT31;62978;51.094;-115.362;2022-10-16T09:54:50;0.23;74.91
74494;SHT31;62978;51.094;-115.362;2022-10-16T09:57:59;0.20;75.15
74494;SHT31;62978;51.094;-115.362;2022-10-16T10:00:26;0.11;75.48
74494;SHT31;62978;51.094;-115.362;2022-10-16T10:02:55;0.06;75.50
74494;SHT31;62978;51.094;-115.362;2022-10-16T10:05:25;0.02;75.58
74494;SHT31;62978;51.094;-115.362;2022-10-16T10:07:56;-0.00;75.69
74494;SHT31;62978;51.094;-115.362;2022-10-16T10:10:29;-0.00;75.73
74494;SHT31;62978;51.094;-115.362;2022-10-16T10:12:59;0.00;75.78
74494;SHT31;62978;51.094;-115.362;2022-10-16T10:15:27;-0.00;75.83
74494;SHT31;62978;51.094;-115.362;2022-10-16T10:18:02;0.02;75.83
74494;SHT31;62978;51.094;-115.362;2022-10-16T10:20:41;0.06;75.98
74494;SHT31;62978;51.094;-115.362;2022-10-16T10:23:25;0.08;75.93
74494;SHT31;62978;51.094;-115.362;2022-10-16T10:32:02;0.08;75.87
74494;SHT31;62978;51.094;-115.362;2022-10-16T10:38:02;0.00;76.06
74494;SHT31;62978;51.094;-115.362;2022-10-16T10:40:34;-0.02;76.08
74494;SHT31;62978;51.094;-115.362;2022-10-16T10:43:42;-0.06;76.14
74494;SHT31;62978;51.094;-115.362;2022-10-16T10:46:28;-0.10;76.35
74494;SHT31;62978;51.094;-115.362;2022-10-16T10:49:09;-0.17;76.40
74494;SHT31;62978;51.094;-115.362;2022-10-16T10:52:10;-0.21;76.40
74494;SHT31;62978;51.094;-115.362;2022-10-16T11:02:01;-0.32;77.32
74494;SHT31;62978;51.094;-115.362;2022-10-16T11:05:09;-0.31;77.40
74494;SHT31;62978;51.094;-115.362;2022-10-16T11:11:08;-0.27;77.47
74494;SHT31;62978;51.094;-115.362;2022-10-16T11:19:45;-0.17;77.20
74494;SHT31;62978;51.094;-115.362;2022-10-16T11:22:38;-0.16;77.24
74494;SHT31;62978;51.094;-115.362;2022-10-16T11:25:23;-0.20;77.30
74494;SHT31;62978;51.094;-115.362;2022-10-16T11:28:16;-0.24;77.41
74494;SHT31;62978;51.094;-115.362;2022-10-16T11:33:51;-0.32;77.95
74494;SHT31;62978;51.094;-115.362;2022-10-16T11:37:10;-0.38;78.03
74494;SHT31;62978;51.094;-115.362;2022-10-16T11:39:49;-0.43;78.09
74494;SHT31;62978;51.094;-115.362;2022-10-16T11:42:35;-0.45;78.24
74494;SHT31;62978;51.094;-115.362;2022-10-16T11:45:24;-0.50;78.25
74494;SHT31;62978;51.094;-115.362;2022-10-16T11:48:15;-0.48;78.22
74494;SHT31;62978;51.094;-115.362;2022-10-16T11:54:03;-0.42;78.36
74494;SHT31;62978;51.094;-115.362;2022-10-16T11:56:55;-0.38;78.17
74494;SHT31;62978;51.094;-115.362;2022-10-16T11:59:45;-0.32;77.93
74494;SHT31;62978;51.094;-115.362;2022-10-16T12:02:54;-0.27;77.80
74494;SHT31;62978;51.094;-115.362;2022-10-16T12:08:50;-0.25;77.78
74494;SHT31;62978;51.094;-115.362;2022-10-16T12:16:55;-0.36;78.23
74494;SHT31;62978;51.094;-115.362;2022-10-16T12:30:42;-0.62;79.12
74494;SHT31;62978;51.094;-115.362;2022-10-16T12:33:30;-0.65;79.39
74494;SHT31;62978;51.094;-115.362;2022-10-16T12:36:03;-0.63;79.25
74494;SHT31;62978;51.094;-115.362;2022-10-16T12:38:47;-0.62;79.18
74494;SHT31;62978;51.094;-115.362;2022-10-16T12:41:28;-0.60;79.07
74494;SHT31;62978;51.094;-115.362;2022-10-16T12:44:05;-0.55;79.09
74494;SHT31;62978;51.094;-115.362;2022-10-16T12:46:51;-0.53;79.35
74494;SHT31;62978;51.094;-115.362;2022-10-16T12:49:29;-0.53;79.42
74494;SHT31;62978;51.094;-115.362;2022-10-16T12:52:03;-0.51;79.40
74494;SHT31;62978;51.094;-115.362;2022-10-16T12:54:37;-0.51;79.25
74494;SHT31;62978;51.094;-115.362;2022-10-16T12:57:12;-0.52;79.03
74494;SHT31;62978;51.094;-115.362;2022-10-16T13:00:09;-0.54;79.06
74494;SHT31;62978;51.094;-115.362;2022-10-16T13:06:13;-0.62;79.23
74494;SHT31;62978;51.094;-115.362;2022-10-16T13:17:44;-0.80;80.02
74494;SHT31;62978;51.094;-115.362;2022-10-16T13:20:50;-0.78;79.86
74494;SHT31;62978;51.094;-115.362;2022-10-16T13:29:52;-0.64;79.40
74494;SHT31;62978;51.094;-115.362;2022-10-16T13:32:28;-0.59;79.37
74494;SHT31;62978;51.094;-115.362;2022-10-16T13:34:56;-0.56;79.35
74494;SHT31;62978;51.094;-115.362;2022-10-16T13:37:25;-0.55;79.35
74494;SHT31;62978;51.094;-115.362;2022-10-16T13:40:02;-0.55;79.51
74494;SHT31;62978;51.094;-115.362;2022-10-16T13:42:46;-0.58;79.73
74494;SHT31;62978;51.094;-115.362;2022-10-16T13:45:19;-0.61;79.70
74494;SHT31;62978;51.094;-115.362;2022-10-16T13:47:48;-0.64;79.56
74494;SHT31;62978;51.094;-115.362;2022-10-16T13:50:16;-0.65;79.55
74494;SHT31;62978;51.094;-115.362;2022-10-16T13:52:44;-0.67;79.67
74494;SHT31;62978;51.094;-115.362;2022-10-16T13:55:16;-0.71;79.88
74494;SHT31;62978;51.094;-115.362;2022-10-16T13:57:44;-0.72;80.09
74494;SHT31;62978;51.094;-115.362;2022-10-16T14:00:19;-0.69;80.38
74494;SHT31;62978;51.094;-115.362;2022-10-16T14:02:57;-0.67;80.45
74494;SHT31;62978;51.094;-115.362;2022-10-16T14:05:33;-0.62;80.42
74494;SHT31;62978;51.094;-115.362;2022-10-16T14:08:01;-0.55;80.60
74494;SHT31;62978;51.094;-115.362;2022-10-16T14:10:29;-0.42;80.63
74494;SHT31;62978;51.094;-115.362;2022-10-16T14:13:05;-0.27;80.61
74494;SHT31;62978;51.094;-115.362;2022-10-16T14:15:40;-0.12;80.22
74494;SHT31;62978;51.094;-115.362;2022-10-16T14:18:18;-0.08;79.95
74494;SHT31;62978;51.094;-115.362;2022-10-16T14:20:50;-0.08;79.96
74494;SHT31;62978;51.094;-115.362;2022-10-16T14:25:45;-0.13;80.14
74494;SHT31;62978;51.094;-115.362;2022-10-16T14:30:53;-0.19;79.96
74494;SHT31;62978;51.094;-115.362;2022-10-16T14:33:24;-0.20;79.93
74494;SHT31;62978;51.094;-115.362;2022-10-16T14:36:17;-0.22;80.08
74494;SHT31;62978;51.094;-115.362;2022-10-16T14:39:28;-0.27;80.19
74494;SHT31;62978;51.094;-115.362;2022-10-16T14:41:48;-0.31;80.33
74494;SHT31;62978;51.094;-115.362;2022-10-16T14:44:17;-0.33;80.34
74494;SHT31;62978;51.094;-115.362;2022-10-16T14:46:52;-0.31;80.40
74494;SHT31;62978;51.094;-115.362;2022-10-16T14:49:19;-0.25;80.33
74494;SHT31;62978;51.094;-115.362;2022-10-16T14:51:49;-0.19;80.18
74494;SHT31;62978;51.094;-115.362;2022-10-16T14:54:18;-0.10;80.13
74494;SHT31;62978;51.094;-115.362;2022-10-16T14:59:39;0.07;79.90
74494;SHT31;62978;51.094;-115.362;2022-10-16T15:02:30;0.13;79.95
74494;SHT31;62978;51.094;-115.362;2022-10-16T15:07:44;0.23;79.83
74494;SHT31;62978;51.094;-115.362;2022-10-16T15:10:12;0.29;79.85
74494;SHT31;62978;51.094;-115.362;2022-10-16T15:12:40;0.39;79.81
74494;SHT31;62978;51.094;-115.362;2022-10-16T15:18:06;0.61;79.67
74494;SHT31;62978;51.094;-115.362;2022-10-16T15:20:34;0.69;79.58
74494;SHT31;62978;51.094;-115.362;2022-10-16T15:23:04;0.79;79.49
74494;SHT31;62978;51.094;-115.362;2022-10-16T15:25:46;0.94;79.40
74494;SHT31;62978;51.094;-115.362;2022-10-16T15:28:20;1.11;79.11
74494;SHT31;62978;51.094;-115.362;2022-10-16T15:30:50;1.26;78.82
74494;SHT31;62978;51.094;-115.362;2022-10-16T15:33:20;1.41;78.60
74494;SHT31;62978;51.094;-115.362;2022-10-16T15:35:53;1.59;78.35
74494;SHT31;62978;51.094;-115.362;2022-10-16T15:38:21;1.79;77.99
74494;SHT31;62978;51.094;-115.362;2022-10-16T15:40:49;1.93;77.65
74494;SHT31;62978;51.094;-115.362;2022-10-16T15:43:16;2.03;77.42
74494;SHT31;62978;51.094;-115.362;2022-10-16T15:45:44;2.11;77.24
74494;SHT31;62978;51.094;-115.362;2022-10-16T15:48:32;2.19;77.07
74494;SHT31;62978;51.094;-115.362;2022-10-16T15:50:59;2.31;76.88
74494;SHT31;62978;51.094;-115.362;2022-10-16T15:53:31;2.41;76.64
74494;SHT31;62978;51.094;-115.362;2022-10-16T15:56:06;2.49;76.57
74494;SHT31;62978;51.094;-115.362;2022-10-16T15:58:36;2.58;76.44
74494;SHT31;62978;51.094;-115.362;2022-10-16T16:01:04;2.69;76.21
74494;SHT31;62978;51.094;-115.362;2022-10-16T16:03:33;2.78;75.92
74494;SHT31;62978;51.094;-115.362;2022-10-16T16:06:04;2.88;75.70
74494;SHT31;62978;51.094;-115.362;2022-10-16T16:08:36;3.02;75.51
74494;SHT31;62978;51.094;-115.362;2022-10-16T16:11:07;3.14;75.37
74494;SHT31;62978;51.094;-115.362;2022-10-16T16:13:37;3.31;75.11
74494;SHT31;62978;51.094;-115.362;2022-10-16T16:16:06;3.48;74.69
74494;SHT31;62978;51.094;-115.362;2022-10-16T16:18:35;3.69;74.06
74494;SHT31;62978;51.094;-115.362;2022-10-16T16:21:03;3.92;73.08
74494;SHT31;62978;51.094;-115.362;2022-10-16T16:23:31;4.12;72.20
74494;SHT31;62978;51.094;-115.362;2022-10-16T16:26:06;4.35;71.45
74494;SHT31;62978;51.094;-115.362;2022-10-16T16:28:39;4.55;71.10
74494;SHT31;62978;51.094;-115.362;2022-10-16T16:31:08;4.67;70.65
74494;SHT31;62978;51.094;-115.362;2022-10-16T16:33:35;4.82;70.27
74494;SHT31;62978;51.094;-115.362;2022-10-16T16:36:05;4.97;70.14
74494;SHT31;62978;51.094;-115.362;2022-10-16T16:38:33;5.08;70.00
74494;SHT31;62978;51.094;-115.362;2022-10-16T16:41:10;5.19;69.80
74494;SHT31;62978;51.094;-115.362;2022-10-16T16:43:51;5.36;69.17
74494;SHT31;62978;51.094;-115.362;2022-10-16T16:46:20;5.52;68.96
74494;SHT31;62978;51.094;-115.362;2022-10-16T16:48:48;5.66;68.51
74494;SHT31;62978;51.094;-115.362;2022-10-16T16:51:21;5.86;68.13
74494;SHT31;62978;51.094;-115.362;2022-10-16T16:53:49;6.04;67.66
74494;SHT31;62978;51.094;-115.362;2022-10-16T16:56:19;6.23;66.90
74494;SHT31;62978;51.094;-115.362;2022-10-16T16:58:50;6.42;65.90
74494;SHT31;62978;51.094;-115.362;2022-10-16T17:01:21;6.62;65.36
74494;SHT31;62978;51.094;-115.362;2022-10-16T17:03:53;6.81;64.86
74494;SHT31;62978;51.094;-115.362;2022-10-16T17:06:24;7.04;64.38
74494;SHT31;62978;51.094;-115.362;2022-10-16T17:08:55;7.25;63.74
74494;SHT31;62978;51.094;-115.362;2022-10-16T17:11:23;7.45;63.14
74494;SHT31;62978;51.094;-115.362;2022-10-16T17:13:53;7.62;62.45
74494;SHT31;62978;51.094;-115.362;2022-10-16T17:16:35;7.83;61.73
74494;SHT31;62978;51.094;-115.362;2022-10-16T17:19:05;8.25;60.36
74494;SHT31;62978;51.094;-115.362;2022-10-16T17:21:36;9.29;58.28
74494;SHT31;62978;51.094;-115.362;2022-10-16T17:24:03;10.87;55.17
74494;SHT31;62978;51.094;-115.362;2022-10-16T17:26:31;12.24;52.18
74494;SHT31;62978;51.094;-115.362;2022-10-16T17:29:03;12.92;51.13
74494;SHT31;62978;51.094;-115.362;2022-10-16T17:31:31;13.01;50.67
74494;SHT31;62978;51.094;-115.362;2022-10-16T17:34:01;12.80;49.81
74494;SHT31;62978;51.094;-115.362;2022-10-16T17:36:33;12.83;49.28
74494;SHT31;62978;51.094;-115.362;2022-10-16T17:39:05;12.97;48.03
74494;SHT31;62978;51.094;-115.362;2022-10-16T17:41:36;13.02;47.63
74494;SHT31;62978;51.094;-115.362;2022-10-16T17:44:03;12.91;47.07
74494;SHT31;62978;51.094;-115.362;2022-10-16T17:46:32;12.70;46.74
74494;SHT31;62978;51.094;-115.362;2022-10-16T17:49:00;12.41;46.69